Flight Track Log - Related Links

Times and Time Zones

All times are in EDT time to prevent confusion due to time zone crossing. See the CES5273 flight status page for this flight to view local times or setup timezone preferences in your user account.

Time Position Orientation Groundspeed Altitude Reporting Facility
EDT Latitude Longitude Course Direction KTS MPH feet Rate Location/Type
Wed 10:54:00 AM 29.6294 119.8378 220° Southwest  Level Estimated
Wed 10:55:00 AM 29.5506 119.7642 219° Southwest  Level Estimated
Wed 10:56:00 AM 29.4717 119.6906 219° Southwest  Level Estimated
Wed 10:57:00 AM 29.3927 119.6171 219° Southwest  Level Estimated
Wed 10:58:00 AM 29.3137 119.5438 219° Southwest  Level Estimated
Wed 10:59:00 AM 29.2347 119.4706 219° Southwest  Level Estimated
Wed 11:00:00 AM 29.1557 119.3975 219° Southwest  Level Estimated
Wed 11:01:00 AM 29.0766 119.3245 219° Southwest  Level Estimated
Wed 11:02:00 AM 28.9974 119.2516 219° Southwest  Level Estimated
Wed 11:03:00 AM 28.9182 119.1788 219° Southwest  Level Estimated
Wed 11:04:00 AM 28.8390 119.1062 219° Southwest  Level Estimated
Wed 11:05:00 AM 28.7598 119.0336 219° Southwest  Level Estimated
Wed 11:06:00 AM 28.6805 118.9612 219° Southwest  Level Estimated
Wed 11:07:00 AM 28.6011 118.8888 219° Southwest  Level Estimated
Wed 11:08:00 AM 28.5217 118.8166 219° Southwest  Level Estimated
Wed 11:09:00 AM 28.4423 118.7445 219° Southwest  Level Estimated
Wed 11:10:00 AM 28.3629 118.6725 219° Southwest  Level Estimated
Wed 11:11:00 AM 28.2834 118.6006 219° Southwest  Level Estimated
Wed 11:12:00 AM 28.2039 118.5288 219° Southwest  Level Estimated
Wed 11:13:00 AM 28.1243 118.4571 218° Southwest  Level Estimated
Wed 11:14:00 AM 28.0447 118.3856 218° Southwest  Level Estimated
Wed 11:15:00 AM 27.9650 118.3141 218° Southwest  Level Estimated
Wed 11:16:00 AM 27.8854 118.2427 218° Southwest  Level Estimated
Wed 11:17:00 AM 27.8057 118.1715 218° Southwest  Level Estimated
Wed 11:18:00 AM 27.7259 118.1003 218° Southwest  Level Estimated
Wed 11:19:00 AM 27.6461 118.0293 218° Southwest  Level Estimated
Wed 11:20:00 AM 27.5663 117.9583 218° Southwest  Level Estimated
Wed 11:21:00 AM 27.4864 117.8875 218° Southwest  Level Estimated
Wed 11:22:00 AM 27.4065 117.8167 218° Southwest  Level Estimated
Wed 11:23:00 AM 27.3266 117.7461 218° Southwest  Level Estimated
Wed 11:24:00 AM 27.2467 117.6755 218° Southwest  Level Estimated
Wed 11:25:00 AM 27.1667 117.6051 218° Southwest  Level Estimated
Wed 11:26:00 AM 27.0866 117.5348 218° Southwest  Level Estimated
Wed 11:27:00 AM 27.0065 117.4645 218° Southwest  Level Estimated
Wed 11:28:00 AM 26.9264 117.3944 218° Southwest  Level Estimated
Wed 11:29:00 AM 26.8463 117.3243 218° Southwest  Level Estimated
Wed 11:30:00 AM 26.7661 117.2544 218° Southwest  Level Estimated
Wed 11:31:00 AM 26.6859 117.1845 218° Southwest  Level Estimated
Wed 11:32:00 AM 26.6057 117.1148 218° Southwest  Level Estimated
Wed 11:33:00 AM 26.5254 117.0452 218° Southwest  Level Estimated
Wed 11:34:00 AM 26.4451 116.9756 218° Southwest  Level Estimated
Wed 11:35:00 AM 26.3647 116.9062 218° Southwest  Level Estimated
Wed 11:36:00 AM 26.2844 116.8368 218° Southwest  Level Estimated
Wed 11:37:00 AM 26.2040 116.7676 218° Southwest  Level Estimated
Wed 11:38:00 AM 26.1235 116.6984 218° Southwest  Level Estimated
Wed 11:39:00 AM 26.0430 116.6293 218° Southwest  Level Estimated
Wed 11:40:00 AM 25.9625 116.5604 218° Southwest  Level Estimated
Wed 11:41:00 AM 25.8820 116.4915 218° Southwest  Level Estimated
Wed 11:42:00 AM 25.8014 116.4227 218° Southwest  Level Estimated
Wed 11:43:00 AM 25.7208 116.3540 218° Southwest  Level Estimated
Wed 11:44:00 AM 25.6402 116.2854 217° Southwest  Level Estimated
Wed 11:45:00 AM 25.5595 116.2169 217° Southwest  Level Estimated
Wed 11:46:00 AM 25.4788 116.1485 217° Southwest  Level Estimated
Wed 11:47:00 AM 25.3980 116.0802 217° Southwest  Level Estimated
Wed 11:48:00 AM 25.3173 116.0120 217° Southwest  Level Estimated
Wed 11:49:00 AM 25.2365 115.9438 217° Southwest  Level Estimated
Wed 11:50:00 AM 25.1556 115.8758 217° Southwest  Level Estimated
Wed 11:51:00 AM 25.0748 115.8078 217° Southwest  Level Estimated
Wed 11:52:00 AM 24.9939 115.7399 217° Southwest  Level Estimated
Wed 11:53:00 AM 24.9130 115.6722 217° Southwest  Level Estimated
Wed 11:54:00 AM 24.8320 115.6045 217° Southwest  Level Estimated
Wed 11:55:00 AM 24.7510 115.5369 217° Southwest  Level Estimated
Wed 11:56:00 AM 24.6700 115.4694 217° Southwest  Level Estimated
Wed 11:57:00 AM 24.5890 115.4019 217° Southwest  Level Estimated
Wed 11:58:00 AM 24.5079 115.3346 217° Southwest  Level Estimated
Wed 11:59:00 AM 24.4268 115.2673 217° Southwest  Level Estimated
Wed 12:00:00 PM 24.3457 115.2002 217° Southwest  Level Estimated
Wed 12:01:00 PM 24.2645 115.1331 217° Southwest  Level Estimated
Wed 12:02:00 PM 24.1833 115.0661 217° Southwest  Level Estimated
Wed 12:03:00 PM 24.1021 114.9992 217° Southwest  Level Estimated
Wed 12:04:00 PM 24.0209 114.9324 217° Southwest  Level Estimated
Wed 12:05:00 PM 23.9396 114.8657 217° Southwest  Level Estimated
Wed 12:06:00 PM 23.8583 114.7990 217° Southwest  Level Estimated
Wed 12:07:00 PM 23.7769 114.7324 217° Southwest  Level Estimated
Wed 12:08:00 PM 23.6956 114.6660 217° Southwest  Level Estimated
Wed 12:09:00 PM 23.6142 114.5996 217° Southwest  Level Estimated
Wed 12:10:00 PM 23.5328 114.5332 217° Southwest  Level Estimated
Wed 12:11:00 PM 23.4513 114.4670 217° Southwest  Level Estimated
Wed 12:12:00 PM 23.3698 114.4008 217° Southwest  Level Estimated
Wed 12:13:00 PM 23.2883 114.3348 217° Southwest  Level Estimated
Wed 12:14:00 PM 23.2068 114.2688 217° Southwest  Level Estimated
Wed 12:15:00 PM 23.1252 114.2029 217° Southwest  Level Estimated
Wed 12:16:00 PM 23.0436 114.1370 217° Southwest  Level Estimated
Wed 12:17:00 PM 22.9620 114.0713 217° Southwest  Level Estimated
Wed 12:18:00 PM 22.8804 114.0056 217° Southwest  Level Estimated
Wed 12:19:00 PM 22.7987 113.9400 217° Southwest  Level Estimated
Wed 12:20:00 PM 22.7170 113.8745 216° Southwest  Level Estimated
Wed 12:21:00 PM 22.6395 113.8124 216° Southwest  Level Estimated
Wed 12:22:00 PM 22.6395 113.8124 25° Northeast  Level Estimated
Wed 12:23:00 PM 22.6395 113.8124 25° Northeast  Level Estimated
Wed 12:24:00 PM 22.6395 113.8124 25° Northeast  Level Estimated
Wed 12:25:00 PM 22.6395 113.8124 25° Northeast  Level Estimated
Wed 12:26:00 PM 22.6395 113.8124 25° Northeast  Level Estimated
Wed 12:27:00 PM 22.6395 113.8124 25° Northeast  Level Estimated
Wed 12:28:00 PM 22.6395 113.8124 25° Northeast  Level Estimated
Wed 12:29:00 PM 22.6395 113.8124 25° Northeast  Level Estimated
Wed 12:30:00 PM 22.6395 113.8124 25° Northeast  Level Estimated
Wed 12:31:00 PM 22.6395 113.8124 25° Northeast  Level Estimated
Wed 12:32:00 PM 22.6395 113.8124 25° Northeast  Level Estimated
Wed 12:33:00 PM 22.6395 113.8124 25° Northeast  Level Estimated
Wed 12:34:00 PM 22.6395 113.8124 25° Northeast  Level Estimated
Wed 12:35:00 PM 22.6395 113.8124 25° Northeast  Level Estimated
Wed 12:36:00 PM 22.6395 113.8124 25° Northeast  Level Estimated
Wed 12:37:00 PM 22.6395 113.8124 25° Northeast  Level Estimated
Wed 12:38:00 PM 22.6395 113.8124 25° Northeast  Level Estimated
Wed 12:39:00 PM 22.6395 113.8124 25° Northeast  Level Estimated
Wed 12:40:00 PM 22.6395 113.8124 25° Northeast  Level Estimated
Wed 12:41:00 PM 22.6395 113.8124 25° Northeast  Level Estimated
Wed 12:42:00 PM 22.6395 113.8124 25° Northeast  Level Estimated
Wed 12:43:00 PM 22.6395 113.8124 25° Northeast  Level Estimated
Wed 12:44:00 PM 22.6395 113.8124 25° Northeast  Level Estimated
Wed 12:45:00 PM 22.6395 113.8124 25° Northeast  Level Estimated

Login

Don't have an account? Register now (free) for customized features, flight alerts, and more!